createdAt,value
2018-03-14T00:00:26.078Z,39.50
2018-03-14T00:01:31.015Z,41.53
2018-03-14T00:02:37.023Z,42.28
2018-03-14T00:03:42.088Z,37.50
2018-03-14T00:04:47.182Z,43.03
2018-03-14T00:05:52.961Z,41.92
2018-03-14T00:06:58.981Z,47.90
2018-03-14T00:08:05.420Z,43.75
2018-03-14T00:09:10.630Z,41.70
2018-03-14T00:10:16.505Z,42.33
2018-03-14T00:11:22.733Z,42.50
2018-03-14T00:12:28.973Z,46.20
2018-03-14T00:13:34.696Z,41.22
2018-03-14T00:14:40.044Z,40.55
2018-03-14T00:15:45.626Z,40.72
2018-03-14T00:16:51.144Z,47.67
2018-03-14T00:17:56.355Z,40.33
2018-03-14T00:19:01.285Z,40.25
2018-03-14T00:20:09.553Z,42.42
2018-03-14T00:21:15.471Z,38.22
2018-03-14T00:22:29.356Z,39.38
2018-03-14T00:23:35.110Z,38.38
2018-03-14T00:24:40.210Z,42.88
2018-03-14T00:25:45.399Z,40.72
2018-03-14T00:26:50.398Z,39.03
2018-03-14T00:27:56.045Z,38.95
2018-03-14T00:29:01.748Z,37.35
2018-03-14T00:30:07.118Z,41.40
2018-03-14T00:31:12.483Z,38.47
2018-03-14T00:32:17.443Z,43.72
2018-03-14T00:33:23.433Z,39.80
2018-03-14T00:34:28.418Z,44.38
2018-03-14T00:35:34.442Z,40.70
2018-03-14T00:36:40.118Z,39.78
2018-03-14T00:37:47.549Z,45.25
2018-03-14T00:38:52.743Z,37.67
2018-03-14T00:39:58.765Z,36.50
2018-03-14T00:41:04.151Z,38.30
2018-03-14T00:42:10.504Z,39.93
2018-03-14T00:43:17.264Z,36.78
2018-03-14T00:44:22.328Z,34.80
2018-03-14T00:45:29.778Z,47.08
2018-03-14T00:46:36.466Z,41.08
2018-03-14T00:47:41.829Z,44.28
2018-03-14T00:48:47.307Z,43.87
2018-03-14T00:49:52.723Z,45.42
2018-03-14T00:50:57.907Z,43.40
2018-03-14T00:52:04.429Z,46.08
2018-03-14T00:53:10.924Z,44.83
2018-03-14T00:54:17.148Z,35.80
2018-03-14T00:55:23.456Z,41.95
2018-03-14T00:56:29.601Z,40.70
2018-03-14T00:57:36.705Z,38.25
2018-03-14T00:58:44.032Z,43.58
2018-03-14T00:59:49.241Z,46.33
2018-03-14T01:00:54.714Z,42.58
2018-03-14T01:02:00.975Z,43.38
2018-03-14T01:03:06.190Z,42.62
2018-03-14T01:04:11.504Z,45.13
2018-03-14T01:05:16.761Z,43.38
2018-03-14T01:06:23.042Z,42.30
2018-03-14T01:07:28.974Z,40.55
2018-03-14T01:08:37.767Z,41.97
2018-03-14T01:09:44.879Z,36.20
2018-03-14T01:10:49.973Z,47.00
2018-03-14T01:11:55.283Z,38.63
2018-03-14T01:13:01.562Z,38.03
2018-03-14T01:14:10.024Z,45.40
2018-03-14T01:15:16.313Z,45.38
2018-03-14T01:16:22.863Z,44.45
2018-03-14T01:17:28.653Z,44.88
2018-03-14T01:18:33.760Z,48.87
2018-03-14T01:19:40.275Z,45.40
2018-03-14T01:20:46.945Z,42.55
2018-03-14T01:21:57.465Z,55.40
2018-03-14T01:23:03.638Z,61.25
2018-03-14T01:24:10.325Z,40.95
2018-03-14T01:25:17.792Z,43.25
2018-03-14T01:26:25.121Z,41.72
2018-03-14T01:27:30.280Z,39.53
2018-03-14T01:28:35.671Z,43.45
2018-03-14T01:29:40.817Z,43.67
2018-03-14T01:30:46.764Z,49.50
2018-03-14T01:31:52.142Z,43.00
2018-03-14T01:32:58.379Z,40.17
2018-03-14T01:34:05.178Z,45.00
2018-03-14T01:35:11.307Z,46.90
2018-03-14T01:36:17.500Z,42.57
2018-03-14T01:37:23.037Z,45.17
2018-03-14T01:38:28.537Z,47.70
2018-03-14T01:39:36.119Z,49.67
2018-03-14T01:40:42.257Z,54.03
2018-03-14T01:41:48.448Z,45.97
2018-03-14T01:42:54.340Z,42.30
2018-03-14T01:44:00.683Z,42.30
2018-03-14T01:45:05.822Z,47.45
2018-03-14T01:46:11.120Z,42.55
2018-03-14T01:47:16.904Z,44.38
2018-03-14T01:48:22.405Z,44.65
2018-03-14T01:49:28.230Z,42.60
2018-03-14T01:50:33.666Z,44.80
2018-03-14T01:51:39.874Z,41.50
2018-03-14T01:52:47.663Z,41.50
2018-03-14T01:53:54.601Z,43.95
2018-03-14T01:55:02.500Z,38.60
2018-03-14T01:56:08.645Z,42.25
2018-03-14T01:57:13.933Z,43.70
2018-03-14T01:58:20.508Z,44.10
2018-03-14T01:59:25.478Z,46.92
2018-03-14T02:00:31.133Z,42.38
2018-03-14T02:01:37.338Z,43.45
2018-03-14T02:02:43.399Z,44.25
2018-03-14T02:03:49.245Z,41.33
2018-03-14T02:04:54.053Z,42.92
2018-03-14T02:06:00.642Z,46.75
2018-03-14T02:07:06.982Z,43.95
2018-03-14T02:08:12.083Z,41.85
2018-03-14T02:09:17.249Z,40.00
2018-03-14T02:10:22.842Z,43.72
2018-03-14T02:11:28.391Z,40.65
2018-03-14T02:12:33.221Z,42.22
2018-03-14T02:13:39.678Z,46.72
2018-03-14T02:14:44.905Z,47.40
2018-03-14T02:15:50.312Z,45.15
2018-03-14T02:16:55.850Z,43.07
2018-03-14T02:18:01.575Z,41.63
2018-03-14T02:19:06.570Z,45.65
2018-03-14T02:20:11.473Z,36.93
2018-03-14T02:21:16.496Z,42.05
2018-03-14T02:22:21.534Z,43.08
2018-03-14T02:23:27.249Z,44.63
2018-03-14T02:24:32.436Z,42.25
2018-03-14T02:25:38.324Z,42.97
2018-03-14T02:26:43.239Z,45.78
2018-03-14T02:27:49.758Z,45.03
2018-03-14T02:28:54.541Z,40.22
2018-03-14T02:30:00.288Z,46.67
2018-03-14T02:31:06.326Z,41.08
2018-03-14T02:32:12.172Z,39.08
2018-03-14T02:33:19.300Z,38.83
2018-03-14T02:34:24.255Z,43.35
2018-03-14T02:35:29.858Z,42.90
2018-03-14T02:36:44.633Z,41.47
2018-03-14T02:37:52.022Z,41.47
2018-03-14T02:38:59.187Z,40.83
2018-03-14T02:40:04.949Z,39.53
2018-03-14T02:41:10.393Z,42.90
2018-03-14T02:42:16.347Z,41.20
2018-03-14T02:43:21.954Z,40.58
2018-03-14T02:44:27.573Z,44.50
2018-03-14T02:45:33.815Z,45.03
2018-03-14T02:46:40.884Z,42.80
2018-03-14T02:47:46.662Z,45.38
2018-03-14T02:48:55.143Z,46.63
2018-03-14T02:50:00.860Z,42.35
2018-03-14T02:51:05.527Z,42.83
2018-03-14T02:52:11.207Z,41.40
2018-03-14T02:53:16.500Z,43.00
2018-03-14T02:54:23.036Z,42.58
2018-03-14T02:55:27.928Z,41.63
2018-03-14T02:56:33.410Z,42.78
2018-03-14T02:57:39.302Z,40.25
2018-03-14T02:58:44.926Z,41.30
2018-03-14T02:59:51.088Z,46.13
2018-03-14T03:00:56.894Z,43.80
2018-03-14T03:02:03.340Z,43.72
2018-03-14T03:03:10.445Z,43.15
2018-03-14T03:04:18.177Z,40.63
2018-03-14T03:05:22.841Z,42.28
2018-03-14T03:06:28.172Z,41.65
2018-03-14T03:07:33.561Z,40.80
2018-03-14T03:08:39.636Z,45.10
2018-03-14T03:09:44.411Z,39.60
2018-03-14T03:10:49.134Z,41.75
2018-03-14T03:11:54.276Z,41.50
2018-03-14T03:12:59.627Z,44.60
2018-03-14T03:14:05.027Z,43.67
2018-03-14T03:15:10.925Z,41.80
2018-03-14T03:16:16.917Z,39.53
2018-03-14T03:17:21.966Z,44.53
2018-03-14T03:18:26.807Z,46.92
2018-03-14T03:19:32.064Z,40.25
2018-03-14T03:20:36.509Z,41.40
2018-03-14T03:21:41.341Z,41.50
2018-03-14T03:22:46.095Z,45.53
2018-03-14T03:23:51.067Z,43.30
2018-03-14T03:24:55.591Z,40.15
2018-03-14T03:26:00.049Z,40.97
2018-03-14T03:27:05.174Z,40.10
2018-03-14T03:28:10.286Z,44.63
2018-03-14T03:29:17.063Z,41.83
2018-03-14T03:30:21.816Z,43.13
2018-03-14T03:31:26.554Z,42.90
2018-03-14T03:32:31.084Z,43.65
2018-03-14T03:33:36.483Z,42.25
2018-03-14T03:34:40.959Z,39.03
2018-03-14T03:35:46.298Z,48.43
2018-03-14T03:36:51.148Z,42.28
2018-03-14T03:37:55.745Z,45.80
2018-03-14T03:39:00.754Z,45.05
2018-03-14T03:40:06.228Z,43.85
2018-03-14T03:41:11.274Z,40.15
2018-03-14T03:42:16.290Z,39.22
2018-03-14T03:43:21.635Z,47.05
2018-03-14T03:44:26.609Z,49.85
2018-03-14T03:45:32.547Z,48.63
2018-03-14T03:46:38.119Z,45.35
2018-03-14T03:47:42.972Z,44.03
2018-03-14T03:48:48.193Z,45.53
2018-03-14T03:49:53.550Z,47.80
2018-03-14T03:50:57.975Z,47.85
2018-03-14T03:52:02.537Z,45.25
2018-03-14T03:53:07.621Z,48.95
2018-03-14T03:54:13.754Z,85.82
2018-03-14T03:55:18.178Z,57.73
2018-03-14T03:56:22.575Z,47.30
2018-03-14T03:57:28.011Z,49.83
2018-03-14T03:58:33.269Z,47.85
2018-03-14T03:59:38.911Z,47.00
2018-03-14T04:00:44.711Z,50.67
2018-03-14T04:01:49.011Z,48.65
2018-03-14T04:02:53.320Z,49.08
2018-03-14T04:03:58.340Z,56.83
2018-03-14T04:05:03.346Z,53.30
2018-03-14T04:06:08.408Z,55.70
2018-03-14T04:07:13.125Z,58.25
2018-03-14T04:08:17.671Z,51.20
2018-03-14T04:09:22.112Z,50.92
2018-03-14T04:10:26.495Z,48.92
2018-03-14T04:11:32.844Z,51.65
2018-03-14T04:12:39.075Z,50.15
2018-03-14T04:13:43.903Z,50.00
2018-03-14T04:14:48.384Z,53.08
2018-03-14T04:15:52.979Z,50.22
2018-03-14T04:16:57.639Z,51.75
2018-03-14T04:18:02.549Z,57.17
2018-03-14T04:19:07.122Z,55.05
2018-03-14T04:20:12.241Z,53.78
2018-03-14T04:21:18.093Z,57.67
2018-03-14T04:22:23.162Z,59.13
2018-03-14T04:23:27.577Z,55.05
2018-03-14T04:24:32.335Z,50.38
2018-03-14T04:25:40.065Z,51.30
2018-03-14T04:26:44.848Z,53.25
2018-03-14T04:27:49.989Z,53.17
2018-03-14T04:28:54.354Z,53.87
2018-03-14T04:29:59.134Z,55.95
2018-03-14T04:31:04.680Z,53.45
2018-03-14T04:32:09.042Z,62.58
2018-03-14T04:33:14.052Z,63.72
2018-03-14T04:34:19.555Z,58.10
2018-03-14T04:35:24.054Z,58.47
2018-03-14T04:36:28.414Z,64.30
2018-03-14T04:37:33.955Z,64.40
2018-03-14T04:38:39.080Z,63.90
2018-03-14T04:39:44.180Z,68.05
2018-03-14T04:40:48.649Z,64.00
2018-03-14T04:41:53.458Z,71.35
2018-03-14T04:42:58.075Z,74.28
2018-03-14T04:44:02.548Z,70.32
2018-03-14T04:45:07.656Z,72.53
2018-03-14T04:46:12.394Z,69.60
2018-03-14T04:47:17.188Z,72.47
2018-03-14T04:48:22.447Z,70.85
2018-03-14T04:49:27.822Z,75.87
2018-03-14T04:50:32.542Z,72.65
2018-03-14T04:51:37.587Z,78.18
2018-03-14T04:52:42.473Z,73.22
2018-03-14T04:53:47.206Z,73.12
2018-03-14T04:54:51.785Z,75.12
2018-03-14T04:55:56.508Z,69.25
2018-03-14T04:57:01.796Z,66.68
2018-03-14T04:58:06.897Z,74.28
2018-03-14T04:59:11.562Z,74.65
2018-03-14T05:00:16.301Z,66.60
2018-03-14T05:01:21.745Z,64.32
2018-03-14T05:02:27.387Z,66.20
2018-03-14T05:03:32.308Z,64.07
2018-03-14T05:04:37.951Z,138.02
2018-03-14T05:06:45.791Z,99.05
2018-03-14T05:07:51.204Z,67.65
2018-03-14T05:08:56.418Z,63.85
2018-03-14T05:10:01.716Z,73.47
2018-03-14T05:11:06.254Z,68.55
2018-03-14T05:12:10.606Z,64.97
2018-03-14T05:13:15.192Z,67.95
2018-03-14T05:14:20.024Z,66.07
2018-03-14T05:15:24.822Z,64.80
2018-03-14T05:16:29.613Z,68.90
2018-03-14T05:17:34.774Z,65.00
2018-03-14T05:18:40.244Z,68.90
2018-03-14T05:19:46.048Z,67.23
2018-03-14T05:20:50.965Z,73.62
2018-03-14T05:21:56.168Z,69.78
2018-03-14T05:23:01.932Z,73.53
2018-03-14T05:24:06.510Z,71.75
2018-03-14T05:26:32.746Z,76.78
2018-03-14T05:27:38.144Z,80.95
2018-03-14T05:28:44.689Z,83.82
2018-03-14T05:29:50.244Z,83.45
2018-03-14T05:30:55.922Z,73.73
2018-03-14T05:32:01.612Z,88.47
2018-03-14T05:33:06.685Z,80.60
2018-03-14T05:34:11.634Z,85.25
2018-03-14T05:35:17.612Z,84.30
2018-03-14T05:36:24.314Z,89.78
2018-03-14T05:37:30.683Z,88.18
2018-03-14T05:38:36.551Z,88.70
2018-03-14T05:39:43.558Z,94.78
2018-03-14T05:40:50.743Z,95.60
2018-03-14T05:41:55.759Z,94.53
2018-03-14T05:43:02.694Z,97.97
2018-03-14T05:44:07.866Z,98.57
2018-03-14T05:45:13.331Z,97.53
2018-03-14T05:46:18.891Z,97.05
2018-03-14T05:47:24.517Z,95.78
2018-03-14T05:48:30.272Z,101.97
2018-03-14T05:49:36.595Z,104.65
2018-03-14T05:50:43.238Z,99.45
2018-03-14T05:51:49.055Z,109.82
2018-03-14T05:52:54.328Z,102.07
2018-03-14T05:53:59.829Z,102.70
2018-03-14T05:55:06.276Z,105.43
2018-03-14T05:56:13.273Z,104.53
2018-03-14T05:57:18.719Z,99.80
2018-03-14T05:58:24.250Z,100.55
2018-03-14T05:59:29.898Z,117.37
2018-03-14T06:00:36.040Z,111.15
2018-03-14T06:01:41.504Z,105.57
2018-03-14T06:02:47.049Z,108.65
2018-03-14T06:03:52.146Z,104.40
2018-03-14T06:04:57.440Z,96.55
2018-03-14T06:06:03.170Z,101.12
2018-03-14T06:07:09.131Z,109.53
2018-03-14T06:08:14.827Z,99.82
2018-03-14T06:09:21.981Z,108.28
2018-03-14T06:10:28.504Z,104.05
2018-03-14T06:11:33.769Z,113.60
2018-03-14T06:12:39.357Z,105.93
2018-03-14T06:13:45.996Z,105.65
2018-03-14T06:14:51.965Z,109.37
2018-03-14T06:15:58.035Z,115.50
2018-03-14T06:17:03.311Z,114.95
2018-03-14T06:18:08.760Z,128.25
2018-03-14T06:19:14.277Z,113.45
2018-03-14T06:20:20.320Z,116.28
2018-03-14T06:21:26.026Z,120.70
2018-03-14T06:22:31.484Z,116.28
2018-03-14T06:23:37.315Z,113.35
2018-03-14T06:24:42.537Z,117.85
2018-03-14T06:25:47.796Z,122.03
2018-03-14T06:26:53.449Z,120.05
2018-03-14T06:27:58.777Z,118.28
2018-03-14T06:29:03.890Z,114.47
2018-03-14T06:30:08.979Z,130.57
2018-03-14T06:31:14.372Z,130.23
2018-03-14T06:32:20.598Z,111.68
2018-03-14T06:33:25.856Z,122.67
2018-03-14T06:34:31.727Z,114.60
2018-03-14T06:35:37.548Z,121.22
2018-03-14T06:36:43.535Z,112.18
2018-03-14T06:37:48.794Z,111.60
2018-03-14T06:38:53.965Z,120.93
2018-03-14T06:39:59.779Z,116.12
2018-03-14T06:41:05.754Z,117.68
2018-03-14T06:42:11.101Z,118.68
2018-03-14T06:43:16.120Z,119.97
2018-03-14T06:44:21.358Z,115.12
2018-03-14T06:45:26.479Z,131.07
2018-03-14T06:46:31.644Z,120.72
2018-03-14T06:47:36.809Z,115.90
2018-03-14T06:48:42.694Z,111.25
2018-03-14T06:49:47.886Z,120.50
2018-03-14T06:50:53.042Z,120.62
2018-03-14T06:51:58.235Z,107.60
2018-03-14T06:53:04.179Z,120.28
2018-03-14T06:54:10.156Z,113.62
2018-03-14T06:55:15.809Z,114.00
2018-03-14T06:56:22.455Z,111.05
2018-03-14T06:57:29.976Z,106.95
2018-03-14T06:58:43.752Z,105.20
2018-03-14T07:02:36.649Z,117.45
2018-03-14T07:03:55.668Z,105.10
2018-03-14T07:06:11.957Z,113.45
2018-03-14T07:07:17.179Z,109.45
2018-03-14T07:08:23.573Z,107.32
2018-03-14T07:09:30.009Z,107.57
2018-03-14T07:10:35.932Z,111.47
2018-03-14T07:11:41.378Z,104.43
2018-03-14T07:12:46.484Z,118.20
2018-03-14T07:13:53.665Z,111.10
2018-03-14T07:14:59.764Z,110.63
2018-03-14T07:16:04.991Z,118.53
2018-03-14T07:17:10.520Z,110.50
2018-03-14T07:18:15.806Z,112.90
2018-03-14T07:19:20.992Z,103.15
2018-03-14T07:20:27.179Z,105.07
2018-03-14T07:21:32.999Z,112.25
2018-03-14T07:22:39.093Z,99.80
2018-03-14T07:23:45.772Z,106.85
2018-03-14T07:24:51.323Z,96.97
2018-03-14T07:25:56.676Z,104.18
2018-03-14T07:27:02.154Z,104.18
2018-03-14T07:28:07.634Z,102.47
2018-03-14T07:29:12.647Z,98.40
2018-03-14T07:30:18.914Z,97.60
2018-03-14T07:31:25.535Z,107.53
2018-03-14T07:32:30.586Z,95.57
2018-03-14T07:33:38.051Z,108.10
2018-03-14T07:34:45.978Z,108.18
2018-03-14T07:35:51.686Z,96.13
2018-03-14T07:36:58.330Z,92.22
2018-03-14T07:38:04.389Z,106.40
2018-03-14T07:39:09.366Z,113.07
2018-03-14T07:40:15.308Z,109.20
2018-03-14T07:41:24.100Z,104.75
2018-03-14T07:42:31.115Z,110.05
2018-03-14T07:43:41.216Z,101.85
2018-03-14T07:44:46.501Z,138.55
2018-03-14T07:45:51.528Z,121.53
2018-03-14T07:46:56.484Z,105.72
2018-03-14T07:48:01.669Z,100.47
2018-03-14T07:49:06.905Z,103.15
2018-03-14T07:50:12.104Z,102.20
2018-03-14T07:51:17.844Z,90.82
2018-03-14T07:52:23.726Z,88.85
2018-03-14T07:53:29.020Z,88.97
2018-03-14T07:54:34.201Z,88.22
2018-03-14T07:55:39.920Z,85.18
2018-03-14T07:56:45.236Z,90.13
2018-03-14T07:57:50.192Z,87.45
2018-03-14T07:58:56.195Z,99.13
2018-03-14T08:00:01.284Z,93.37
2018-03-14T08:01:06.638Z,86.22
2018-03-14T08:02:12.610Z,85.40
2018-03-14T08:03:17.348Z,81.90
2018-03-14T08:04:22.600Z,90.43
2018-03-14T08:05:27.594Z,84.78
2018-03-14T08:06:32.285Z,81.78
2018-03-14T08:07:37.653Z,83.97
2018-03-14T08:08:43.520Z,83.10
2018-03-14T08:09:48.591Z,81.03
2018-03-14T08:10:53.482Z,80.07
2018-03-14T08:12:00.241Z,84.03
2018-03-14T08:13:07.067Z,86.43
2018-03-14T08:14:12.306Z,92.20
2018-03-14T08:15:18.099Z,93.20
2018-03-14T08:16:23.030Z,87.97
2018-03-14T08:17:27.939Z,84.93
2018-03-14T08:18:33.215Z,87.37
2018-03-14T08:19:38.842Z,87.50
2018-03-14T08:20:47.997Z,88.10
2018-03-14T08:21:55.385Z,87.07
2018-03-14T08:23:02.400Z,83.45
2018-03-14T08:24:08.759Z,85.53
2018-03-14T08:25:13.683Z,87.27
2018-03-14T08:26:19.377Z,89.18
2018-03-14T08:27:26.677Z,88.87
2018-03-14T08:28:33.051Z,85.28
2018-03-14T08:29:40.105Z,86.70
2018-03-14T08:30:45.537Z,92.82
2018-03-14T08:31:53.247Z,87.05
2018-03-14T08:32:58.823Z,91.40
2018-03-14T08:34:04.466Z,86.63
2018-03-14T08:35:09.807Z,89.22
2018-03-14T08:36:15.654Z,86.72
2018-03-14T08:37:22.046Z,87.62
2018-03-14T08:38:28.322Z,82.25
2018-03-14T08:39:33.919Z,79.72
2018-03-14T08:40:40.543Z,86.37
2018-03-14T08:41:50.880Z,80.78
2018-03-14T08:42:57.244Z,79.78
2018-03-14T08:44:03.950Z,77.12
2018-03-14T08:45:15.397Z,79.80
2018-03-14T08:46:24.318Z,75.47
2018-03-14T08:47:32.004Z,84.20
2018-03-14T08:48:41.927Z,81.93
2018-03-14T08:49:49.027Z,78.15
2018-03-14T08:50:57.174Z,77.20
2018-03-14T08:52:05.390Z,79.97
2018-03-14T08:53:13.671Z,81.85
2018-03-14T08:54:19.710Z,82.73
2018-03-14T08:55:27.702Z,82.60
2018-03-14T08:56:36.036Z,84.07
2018-03-14T08:57:43.554Z,85.27
2018-03-14T08:58:51.675Z,79.97
2018-03-14T08:59:58.676Z,83.85
2018-03-14T09:01:04.830Z,76.18
2018-03-14T09:02:12.185Z,75.78
2018-03-14T09:03:20.476Z,73.87
2018-03-14T09:04:30.118Z,78.20
2018-03-14T09:05:37.493Z,82.80
2018-03-14T09:06:42.591Z,71.28
2018-03-14T09:07:47.450Z,74.12
2018-03-14T09:08:52.485Z,77.10
2018-03-14T09:09:57.786Z,79.20
2018-03-14T09:11:02.617Z,78.68
2018-03-14T09:12:07.809Z,80.55
2018-03-14T09:13:12.652Z,95.93
2018-03-14T09:14:17.416Z,79.23
2018-03-14T09:15:23.864Z,75.15
2018-03-14T09:16:30.288Z,72.43
2018-03-14T09:17:35.056Z,74.40
2018-03-14T09:18:40.710Z,73.72
2018-03-14T09:19:45.702Z,75.18
2018-03-14T09:20:51.483Z,84.70
2018-03-14T09:21:56.628Z,88.85
2018-03-14T09:23:01.773Z,78.40
2018-03-14T09:24:07.030Z,63.93
2018-03-14T09:25:12.672Z,50.90
2018-03-14T09:26:18.555Z,47.03
2018-03-14T09:27:23.691Z,48.22
2018-03-14T09:28:29.409Z,60.38
2018-03-14T09:29:35.115Z,46.40
2018-03-14T09:30:41.050Z,45.78
2018-03-14T09:31:46.212Z,47.95
2018-03-14T09:32:52.942Z,47.10
2018-03-14T09:34:01.386Z,45.55
2018-03-14T09:35:06.521Z,47.67
2018-03-14T09:36:11.402Z,46.10
2018-03-14T09:37:16.967Z,44.78
2018-03-14T09:38:22.539Z,42.55
2018-03-14T09:39:28.612Z,44.10
2018-03-14T09:40:35.277Z,49.00
2018-03-14T09:41:40.199Z,43.58
2018-03-14T09:42:45.111Z,41.47
2018-03-14T09:43:50.154Z,31.25
2018-03-14T09:44:56.233Z,38.72
2018-03-14T09:46:01.211Z,36.37
2018-03-14T09:47:05.897Z,37.80
2018-03-14T09:48:11.079Z,34.10
2018-03-14T09:49:17.006Z,35.90
2018-03-14T09:50:21.926Z,41.10
2018-03-14T09:51:28.394Z,36.83
2018-03-14T09:52:35.057Z,37.65
2018-03-14T09:53:41.709Z,41.92
2018-03-14T09:54:46.421Z,39.70
2018-03-14T09:55:53.087Z,40.87
2018-03-14T09:56:57.862Z,36.83
2018-03-14T09:58:02.718Z,39.47
2018-03-14T09:59:08.022Z,41.70
2018-03-14T10:00:12.984Z,35.60
2018-03-14T10:01:18.590Z,37.60
2018-03-14T10:02:23.301Z,44.78
2018-03-14T10:03:28.071Z,43.90
2018-03-14T10:04:32.980Z,38.88
2018-03-14T10:05:38.679Z,47.33
2018-03-14T10:06:43.445Z,42.25
2018-03-14T10:07:50.202Z,43.70
2018-03-14T10:08:55.800Z,42.17
2018-03-14T10:10:01.169Z,42.00
2018-03-14T10:11:08.056Z,41.33
2018-03-14T10:12:12.798Z,42.65
2018-03-14T10:13:17.376Z,38.60
2018-03-14T10:14:22.855Z,41.63
2018-03-14T10:15:29.503Z,44.97
2018-03-14T10:16:34.301Z,41.60
2018-03-14T10:17:39.008Z,42.05
2018-03-14T10:18:44.096Z,41.85
2018-03-14T10:19:50.335Z,39.28
2018-03-14T10:20:55.916Z,36.97
2018-03-14T10:22:01.243Z,39.13
2018-03-14T10:23:07.011Z,40.55
2018-03-14T10:24:12.930Z,42.63
2018-03-14T10:25:18.648Z,38.72
2018-03-14T10:26:23.624Z,44.63
2018-03-14T10:27:29.273Z,43.70
2018-03-14T10:28:34.083Z,42.38
2018-03-14T10:29:38.758Z,70.82
2018-03-14T10:30:44.253Z,48.55
2018-03-14T10:31:50.676Z,41.75
2018-03-14T10:32:55.331Z,43.83
2018-03-14T10:34:00.734Z,44.47
2018-03-14T10:35:05.582Z,43.38
2018-03-14T10:36:11.105Z,39.80
2018-03-14T10:37:15.835Z,42.80
2018-03-14T10:38:21.410Z,42.60
2018-03-14T10:39:27.240Z,44.85
2018-03-14T10:40:32.796Z,49.33
2018-03-14T10:41:38.423Z,41.37
2018-03-14T10:42:44.888Z,41.15
2018-03-14T10:43:52.902Z,42.05
2018-03-14T10:44:57.895Z,34.20
2018-03-14T10:46:04.128Z,39.67
2018-03-14T10:47:09.594Z,35.00
2018-03-14T10:48:20.328Z,39.00
2018-03-14T10:49:25.107Z,39.60
2018-03-14T10:50:29.857Z,56.85
2018-03-14T10:51:35.359Z,46.08
2018-03-14T10:52:40.209Z,41.03
2018-03-14T10:53:44.941Z,42.40
2018-03-14T10:54:51.304Z,39.50
2018-03-14T10:55:57.307Z,34.13
2018-03-14T10:57:03.102Z,34.60
2018-03-14T10:58:09.684Z,37.50
2018-03-14T10:59:14.499Z,35.67
2018-03-14T11:00:23.395Z,38.90
2018-03-14T11:01:34.071Z,33.78
2018-03-14T11:02:42.970Z,34.83
2018-03-14T11:03:47.751Z,34.38
2018-03-14T11:04:53.265Z,32.85
2018-03-14T11:05:58.367Z,34.30
2018-03-14T11:07:03.154Z,30.70
2018-03-14T11:08:08.941Z,32.87
2018-03-14T11:09:14.848Z,31.55
2018-03-14T11:10:19.667Z,30.27
2018-03-14T11:11:25.127Z,31.65
2018-03-14T11:12:29.839Z,30.50
2018-03-14T11:13:34.689Z,27.53
2018-03-14T11:14:39.416Z,25.17
2018-03-14T11:15:44.194Z,22.08
2018-03-14T11:16:52.723Z,25.02
2018-03-14T11:17:58.198Z,30.37
2018-03-14T11:19:03.027Z,29.15
2018-03-14T11:20:08.547Z,34.70
2018-03-14T11:21:14.313Z,29.08
2018-03-14T11:22:19.894Z,34.20
2018-03-14T11:23:24.806Z,38.05
2018-03-14T11:24:29.779Z,36.95
2018-03-14T11:25:34.713Z,31.70
2018-03-14T11:26:40.165Z,29.23
2018-03-14T11:27:46.492Z,27.60
2018-03-14T11:28:53.075Z,26.23
2018-03-14T11:29:57.920Z,25.83
2018-03-14T11:31:02.647Z,25.58
2018-03-14T11:32:07.376Z,24.70
2018-03-14T11:33:12.228Z,27.70
2018-03-14T11:34:17.946Z,27.67
2018-03-14T11:35:22.823Z,45.22
2018-03-14T11:36:27.601Z,43.17
2018-03-14T11:37:32.310Z,202.62
2018-03-14T11:38:37.759Z,37.30
2018-03-14T11:39:42.561Z,653.72
2018-03-14T11:40:47.357Z,353.17
2018-03-14T11:41:53.792Z,417.90
2018-03-14T11:42:58.626Z,139.23
2018-03-14T11:44:03.272Z,60.42
2018-03-14T11:45:08.856Z,31.60
2018-03-14T11:46:14.399Z,104.82
2018-03-14T11:47:19.187Z,144.27
2018-03-14T11:48:24.660Z,118.45
2018-03-14T11:49:30.208Z,63.15
2018-03-14T11:50:35.954Z,35.13
2018-03-14T11:51:40.712Z,26.95
2018-03-14T11:52:48.833Z,21.20
2018-03-14T11:53:54.676Z,22.15
2018-03-14T11:54:59.477Z,85.30
2018-03-14T11:56:04.378Z,44.55
2018-03-14T11:57:09.806Z,19.30
2018-03-14T11:58:15.259Z,19.15
2018-03-14T11:59:19.921Z,25.62
2018-03-14T12:00:24.748Z,25.27
2018-03-14T12:02:50.306Z,37.85
2018-03-14T12:03:55.898Z,51.75
2018-03-14T12:05:00.632Z,28.38
2018-03-14T12:06:05.437Z,28.73
2018-03-14T12:07:10.127Z,34.80
2018-03-14T12:08:15.383Z,25.25
2018-03-14T12:09:20.246Z,29.00
2018-03-14T12:10:25.245Z,28.50
2018-03-14T12:11:31.994Z,29.37
2018-03-14T12:12:37.129Z,31.17
2018-03-14T12:13:42.043Z,24.55
2018-03-14T12:14:46.719Z,21.12
2018-03-14T12:15:52.575Z,22.55
2018-03-14T12:16:57.252Z,23.35
2018-03-14T12:18:02.853Z,27.55
2018-03-14T12:19:07.651Z,20.00
2018-03-14T12:20:12.314Z,25.50
2018-03-14T12:21:17.825Z,29.05
2018-03-14T12:22:26.625Z,23.30
2018-03-14T12:23:31.784Z,21.05
2018-03-14T12:24:37.333Z,24.10
2018-03-14T12:25:43.010Z,19.27
2018-03-14T12:26:54.546Z,18.85
2018-03-14T12:28:00.115Z,17.98
2018-03-14T12:29:05.327Z,15.25
2018-03-14T12:30:09.978Z,22.92
2018-03-14T12:31:14.583Z,22.73
2018-03-14T12:32:19.295Z,14.80
2018-03-14T12:33:24.670Z,21.45
2018-03-14T12:34:30.757Z,21.20
2018-03-14T12:35:35.492Z,21.02
2018-03-14T12:36:41.241Z,27.58
2018-03-14T12:37:46.082Z,25.75
2018-03-14T12:38:51.859Z,24.30
2018-03-14T12:39:57.894Z,24.98
2018-03-14T12:41:03.418Z,19.05
2018-03-14T12:42:08.911Z,21.77
2018-03-14T12:43:13.711Z,19.33
2018-03-14T12:44:18.479Z,21.42
2018-03-14T12:45:23.313Z,20.05
2018-03-14T12:46:29.316Z,25.17
2018-03-14T12:47:35.565Z,19.05
2018-03-14T12:48:41.457Z,27.00
2018-03-14T12:49:47.240Z,24.60
2018-03-14T12:50:54.279Z,19.30
2018-03-14T12:51:59.923Z,44.08
2018-03-14T12:53:05.444Z,30.05
2018-03-14T12:54:11.245Z,22.42
2018-03-14T12:55:16.161Z,21.08
2018-03-14T12:56:21.003Z,25.80
2018-03-14T12:57:27.051Z,40.05
2018-03-14T12:58:32.622Z,25.25
2018-03-14T12:59:38.580Z,23.73
2018-03-14T13:00:43.268Z,19.23
2018-03-14T13:01:48.958Z,23.40
2018-03-14T13:02:53.806Z,27.70
2018-03-14T13:03:59.605Z,20.15
2018-03-14T13:05:09.456Z,21.17
2018-03-14T13:06:15.227Z,25.98
2018-03-14T13:07:20.209Z,20.40
2018-03-14T13:08:25.096Z,19.25
2018-03-14T13:09:31.314Z,32.60
2018-03-14T13:10:36.201Z,21.10
2018-03-14T13:11:41.052Z,24.73
2018-03-14T13:12:46.038Z,17.70
2018-03-14T13:13:51.992Z,22.10
2018-03-14T13:14:56.696Z,20.73
2018-03-14T13:16:01.623Z,21.52
2018-03-14T13:17:06.451Z,23.12
2018-03-14T13:18:11.358Z,18.73
2018-03-14T13:19:16.625Z,22.80
2018-03-14T13:20:21.480Z,19.15
2018-03-14T13:21:26.923Z,19.67
2018-03-14T13:22:32.477Z,35.85
2018-03-14T13:23:37.288Z,27.13
2018-03-14T13:24:43.095Z,17.67
2018-03-14T13:25:48.939Z,15.90
2018-03-14T13:26:54.848Z,19.85
2018-03-14T13:28:00.449Z,22.73
2018-03-14T13:29:06.057Z,15.48
2018-03-14T13:30:10.881Z,22.43
2018-03-14T13:31:16.683Z,16.15
2018-03-14T13:32:21.737Z,16.17
2018-03-14T13:33:26.498Z,16.30
2018-03-14T13:34:31.232Z,20.35
2018-03-14T13:35:36.495Z,25.23
2018-03-14T13:36:41.255Z,23.75
2018-03-14T13:37:46.595Z,25.55
2018-03-14T13:38:52.213Z,16.10
2018-03-14T13:39:58.256Z,18.30
2018-03-14T13:41:05.890Z,20.02
2018-03-14T13:42:10.644Z,15.00
2018-03-14T13:43:16.742Z,15.98
2018-03-14T13:44:21.470Z,14.73
2018-03-14T13:45:26.760Z,19.33
2018-03-14T13:46:33.194Z,16.80
2018-03-14T13:47:49.880Z,15.63
2018-03-14T13:48:56.050Z,104.80
2018-03-14T13:50:02.311Z,116.97
2018-03-14T13:51:09.570Z,49.28
2018-03-14T13:52:14.458Z,29.45
2018-03-14T13:53:19.406Z,14.45
2018-03-14T13:54:24.723Z,81.80
2018-03-14T13:55:31.478Z,36.67
2018-03-14T13:56:36.933Z,52.92
2018-03-14T13:57:42.661Z,42.90
2018-03-14T13:58:50.098Z,52.92
2018-03-14T13:59:56.102Z,27.48
2018-03-14T14:01:02.677Z,74.72
2018-03-14T14:02:08.395Z,59.70
2018-03-14T14:03:15.317Z,21.87
2018-03-14T14:04:21.089Z,19.87
2018-03-14T14:05:26.803Z,33.08
2018-03-14T14:06:32.355Z,26.25
2018-03-14T14:07:40.244Z,52.65
2018-03-14T14:08:45.959Z,24.73
2018-03-14T14:09:52.932Z,93.97
2018-03-14T14:10:59.956Z,22.52